createdAt,value
2024-04-12T00:02:13.852Z,10.60
2024-04-12T00:04:44.446Z,11.02
2024-04-12T00:07:18.344Z,10.30
2024-04-12T00:09:55.163Z,10.70
2024-04-12T00:12:30.314Z,10.13
2024-04-12T00:15:03.773Z,11.20
2024-04-12T00:17:33.812Z,10.97
2024-04-12T00:20:03.441Z,10.95
2024-04-12T00:22:33.693Z,11.20
2024-04-12T00:25:05.712Z,12.33
2024-04-12T00:27:35.800Z,11.38
2024-04-12T00:30:05.991Z,10.80
2024-04-12T00:32:37.522Z,11.85
2024-04-12T00:35:12.819Z,11.73
2024-04-12T00:37:54.611Z,11.70
2024-04-12T00:40:24.064Z,11.25
2024-04-12T00:42:58.762Z,11.23
2024-04-12T00:45:40.924Z,11.27
2024-04-12T00:48:10.438Z,11.23
2024-04-12T00:50:41.719Z,11.67
2024-04-12T00:53:11.101Z,10.63
2024-04-12T00:55:42.632Z,12.27
2024-04-12T00:58:12.607Z,11.98
2024-04-12T01:00:48.391Z,12.77
2024-04-12T01:03:19.697Z,11.35
2024-04-12T01:05:48.834Z,12.18
2024-04-12T01:08:17.908Z,12.47
2024-04-12T01:10:46.841Z,12.13
2024-04-12T01:13:16.925Z,11.65
2024-04-12T01:15:45.755Z,12.30
2024-04-12T01:18:16.650Z,11.77
2024-04-12T01:20:47.035Z,12.77
2024-04-12T01:23:18.428Z,12.70
2024-04-12T01:25:49.023Z,12.77
2024-04-12T01:28:18.287Z,13.48
2024-04-12T01:30:48.158Z,12.48
2024-04-12T01:33:17.371Z,13.23
2024-04-12T01:35:47.362Z,13.50
2024-04-12T01:38:21.071Z,13.05
2024-04-12T01:41:06.398Z,13.20
2024-04-12T01:43:37.396Z,13.52
2024-04-12T01:46:09.555Z,13.27
2024-04-12T01:48:38.688Z,13.98
2024-04-12T01:51:13.848Z,13.10
2024-04-12T01:53:43.029Z,13.32
2024-04-12T01:56:11.856Z,14.75
2024-04-12T01:58:40.941Z,13.90
2024-04-12T02:01:13.467Z,14.50
2024-04-12T02:03:43.552Z,14.48
2024-04-12T02:06:17.707Z,15.23
2024-04-12T02:08:46.841Z,14.73
2024-04-12T02:11:24.360Z,14.05
2024-04-12T02:13:53.978Z,14.57
2024-04-12T02:16:22.911Z,15.13
2024-04-12T02:18:52.181Z,16.10
2024-04-12T02:21:21.108Z,15.80
2024-04-12T02:23:54.388Z,16.47
2024-04-12T02:26:24.507Z,16.35
2024-04-12T02:28:53.951Z,15.35
2024-04-12T02:31:22.763Z,15.97
2024-04-12T02:33:55.455Z,16.02
2024-04-12T02:36:26.721Z,16.35
2024-04-12T02:38:55.705Z,15.10
2024-04-12T02:41:24.654Z,15.43
2024-04-12T02:43:53.882Z,16.38
2024-04-12T02:46:24.052Z,15.23
2024-04-12T02:48:53.880Z,15.47
2024-04-12T02:51:23.987Z,15.45
2024-04-12T02:53:59.170Z,16.02
2024-04-12T02:56:28.586Z,16.00
2024-04-12T02:58:59.544Z,15.98
2024-04-12T03:01:28.376Z,15.80
2024-04-12T03:03:58.263Z,14.95
2024-04-12T03:06:27.778Z,15.47
2024-04-12T03:09:02.175Z,15.38
2024-04-12T03:11:39.298Z,15.75
2024-04-12T03:14:13.514Z,15.03
2024-04-12T03:16:43.064Z,15.52
2024-04-12T03:19:14.926Z,14.70
2024-04-12T03:21:43.934Z,12.73
2024-04-12T03:24:13.414Z,13.43
2024-04-12T03:26:45.319Z,13.00
2024-04-12T03:29:14.268Z,12.20
2024-04-12T03:31:47.875Z,11.83
2024-04-12T03:34:16.992Z,10.25
2024-04-12T03:36:49.520Z,10.85
2024-04-12T03:39:23.932Z,10.63
2024-04-12T03:42:14.697Z,11.65
2024-04-12T03:44:44.313Z,11.10
2024-04-12T03:47:14.840Z,11.60
2024-04-12T03:49:44.854Z,11.30
2024-04-12T03:52:16.615Z,12.23
2024-04-12T03:54:49.978Z,12.20
2024-04-12T03:57:18.985Z,13.00
2024-04-12T03:59:55.332Z,12.15
2024-04-12T04:02:26.321Z,12.48
2024-04-12T04:05:14.588Z,13.20
2024-04-12T04:07:45.759Z,13.88
2024-04-12T04:10:22.001Z,14.32
2024-04-12T04:12:51.058Z,14.00
2024-04-12T04:15:26.419Z,14.77
2024-04-12T04:17:55.701Z,14.85
2024-04-12T04:20:28.680Z,13.90
2024-04-12T04:23:04.497Z,15.47
2024-04-12T04:25:34.160Z,14.93
2024-04-12T04:28:11.162Z,14.65
2024-04-12T04:30:40.406Z,14.87
2024-04-12T04:33:13.729Z,14.45
2024-04-12T04:35:46.414Z,14.20
2024-04-12T04:38:18.028Z,15.00
2024-04-12T04:40:47.269Z,15.38
2024-04-12T04:43:18.663Z,14.98
2024-04-12T04:45:49.667Z,13.75
2024-04-12T04:48:18.713Z,12.97
2024-04-12T04:50:47.619Z,12.63
2024-04-12T04:53:16.491Z,11.60
2024-04-12T04:55:45.897Z,9.80
2024-04-12T04:58:16.342Z,10.18
2024-04-12T05:00:47.508Z,9.50
2024-04-12T05:03:16.917Z,9.07
2024-04-12T05:05:46.138Z,9.43
2024-04-12T05:08:16.318Z,9.68
2024-04-12T05:10:45.194Z,10.18
2024-04-12T05:13:18.462Z,10.07
2024-04-12T05:15:50.826Z,10.88
2024-04-12T05:18:20.977Z,11.02
2024-04-12T05:20:50.141Z,11.63
2024-04-12T05:23:22.611Z,12.07
2024-04-12T05:25:51.759Z,12.02
2024-04-12T05:28:21.381Z,11.63
2024-04-12T05:30:52.403Z,12.52
2024-04-12T05:33:24.633Z,11.52
2024-04-12T05:35:54.363Z,11.57
2024-04-12T05:38:25.866Z,11.93
2024-04-12T05:40:55.769Z,12.07
2024-04-12T05:43:25.042Z,11.75
2024-04-12T05:45:57.169Z,11.90
2024-04-12T05:48:26.708Z,11.10
2024-04-12T05:50:57.201Z,11.73
2024-04-12T05:53:27.451Z,11.80
2024-04-12T05:56:15.164Z,11.68
2024-04-12T05:58:44.020Z,12.00
2024-04-12T06:01:13.077Z,12.35
2024-04-12T06:03:53.457Z,12.63
2024-04-12T06:06:23.814Z,13.20
2024-04-12T06:08:54.835Z,11.93
2024-04-12T06:11:26.629Z,12.17
2024-04-12T06:13:56.873Z,11.38
2024-04-12T06:16:26.225Z,11.75
2024-04-12T06:18:59.694Z,11.47
2024-04-12T06:21:32.769Z,10.93
2024-04-12T06:24:02.107Z,11.32
2024-04-12T06:26:31.029Z,11.00
2024-04-12T06:29:08.375Z,11.20
2024-04-12T06:31:38.599Z,10.65
2024-04-12T06:34:07.589Z,12.50
2024-04-12T06:36:36.512Z,12.00
2024-04-12T06:39:06.786Z,11.90
2024-04-12T06:41:35.938Z,12.27
2024-04-12T06:44:05.015Z,11.97
2024-04-12T06:46:37.344Z,12.23
2024-04-12T06:49:09.726Z,12.40
2024-04-12T06:52:01.812Z,11.93
2024-04-12T06:54:37.113Z,12.57
2024-04-12T06:57:07.618Z,13.18
2024-04-12T06:59:37.111Z,13.05
2024-04-12T07:02:15.507Z,13.43
2024-04-12T07:04:45.078Z,12.98
2024-04-12T07:07:14.210Z,13.13
2024-04-12T07:09:47.177Z,13.67
2024-04-12T07:12:16.250Z,14.18
2024-04-12T07:14:47.700Z,13.05
2024-04-12T07:17:32.307Z,13.65
2024-04-12T07:20:01.644Z,13.97
2024-04-12T07:22:30.748Z,14.75
2024-04-12T07:25:02.588Z,11.98
2024-04-12T07:27:34.551Z,12.00
2024-04-12T07:30:07.717Z,12.10
2024-04-12T07:32:38.223Z,12.38
2024-04-12T07:35:26.053Z,11.47
2024-04-12T07:38:04.142Z,11.20
2024-04-12T07:40:37.221Z,10.85
2024-04-12T07:43:11.377Z,10.73
2024-04-12T07:45:41.912Z,10.90
2024-04-12T07:48:28.679Z,9.75
2024-04-12T07:51:02.568Z,9.30
2024-04-12T07:53:37.149Z,10.30
2024-04-12T07:56:11.111Z,9.25
2024-04-12T08:01:28.400Z,9.57
2024-04-12T08:03:58.485Z,8.82
2024-04-12T08:06:46.843Z,8.30
2024-04-12T08:48:43.135Z,4.00
2024-04-12T09:04:00.055Z,3.00
2024-04-12T09:06:29.280Z,3.00
2024-04-12T09:09:49.050Z,3.00
2024-04-12T09:12:54.057Z,2.67
2024-04-12T09:23:51.662Z,3.20
2024-04-12T09:48:53.742Z,2.47
2024-04-12T09:55:45.320Z,2.63
2024-04-12T09:58:32.934Z,2.50
2024-04-12T10:01:23.793Z,2.50
2024-04-12T10:04:11.450Z,2.92
2024-04-12T10:07:00.977Z,2.23
2024-04-12T10:09:48.612Z,2.00
2024-04-12T10:12:36.296Z,2.20
2024-04-12T10:15:23.688Z,2.10
2024-04-12T10:18:11.477Z,2.42
2024-04-12T10:20:59.610Z,2.30
2024-04-12T10:23:49.834Z,2.20
2024-04-12T10:26:37.746Z,1.95
2024-04-12T10:29:25.760Z,2.50
2024-04-12T10:32:17.532Z,2.20
2024-04-12T10:35:05.288Z,2.10
2024-04-12T10:37:38.034Z,1.98
2024-04-12T10:40:11.057Z,2.35
2024-04-12T10:42:40.065Z,2.00
2024-04-12T10:45:16.462Z,2.50
2024-04-12T10:47:48.893Z,2.28
2024-04-12T10:50:20.719Z,2.50
2024-04-12T10:55:37.171Z,2.42
2024-04-12T10:58:07.187Z,3.42
2024-04-12T11:00:36.851Z,3.40
2024-04-12T11:03:22.064Z,3.08
2024-04-12T11:06:04.482Z,2.58
2024-04-12T11:08:33.447Z,3.00
2024-04-12T11:11:17.497Z,3.10
2024-04-12T11:17:04.192Z,2.33
2024-04-12T11:19:54.578Z,2.95
2024-04-12T11:22:43.081Z,3.22
2024-04-12T11:25:31.884Z,3.17
2024-04-12T11:28:19.585Z,3.07
2024-04-12T11:31:07.317Z,2.95
2024-04-12T11:33:47.591Z,2.90
2024-04-12T11:36:22.173Z,2.90
2024-04-12T11:38:55.334Z,2.65
2024-04-12T11:41:25.984Z,2.30
2024-04-12T11:43:56.261Z,2.83
2024-04-12T11:46:25.777Z,2.65
2024-04-12T11:57:34.301Z,2.70
2024-04-12T12:00:10.190Z,2.70
2024-04-12T12:02:44.926Z,2.30
2024-04-12T12:05:22.590Z,2.47
2024-04-12T12:07:54.400Z,2.33
2024-04-12T12:10:23.879Z,2.38
2024-04-12T12:12:52.789Z,2.70
2024-04-12T12:15:21.897Z,2.47
2024-04-12T12:17:50.904Z,2.50
2024-04-12T12:20:20.010Z,2.70
2024-04-12T12:22:48.955Z,2.70
2024-04-12T12:25:18.297Z,2.50
2024-04-12T12:27:47.159Z,2.47
2024-04-12T12:30:16.405Z,2.40
2024-04-12T12:32:46.484Z,2.80
2024-04-12T12:35:20.366Z,2.60
2024-04-12T12:37:49.902Z,3.00
2024-04-12T12:40:23.523Z,2.20
2024-04-12T12:42:59.057Z,2.80
2024-04-12T12:45:29.284Z,2.50
2024-04-12T12:47:59.273Z,2.87
2024-04-12T12:50:30.455Z,3.05
2024-04-12T12:53:00.741Z,3.53
2024-04-12T12:55:30.775Z,3.07
2024-04-12T12:58:13.048Z,3.10
2024-04-12T13:00:48.838Z,2.67
2024-04-12T13:03:27.130Z,2.67
2024-04-12T13:05:57.140Z,2.72
2024-04-12T13:11:17.120Z,2.53
2024-04-12T13:13:47.591Z,2.47
2024-04-12T13:25:18.117Z,2.90
2024-04-12T13:28:02.181Z,3.03
2024-04-12T13:30:34.449Z,3.17
2024-04-12T13:33:03.628Z,3.08
2024-04-12T14:11:17.725Z,3.03
2024-04-12T14:17:55.793Z,2.67
2024-04-12T14:20:24.909Z,2.38
2024-04-12T14:22:56.322Z,3.38
2024-04-12T14:25:27.762Z,2.70
2024-04-12T14:31:09.020Z,2.92
2024-04-12T14:43:13.243Z,2.92
2024-04-12T14:55:16.608Z,3.00
2024-04-12T16:21:42.009Z,2.20
2024-04-12T16:41:45.319Z,2.10
2024-04-12T17:19:03.529Z,2.10
2024-04-12T17:47:41.158Z,2.90
2024-04-12T17:55:14.304Z,2.63
2024-04-12T18:23:58.931Z,2.85
2024-04-12T18:48:46.109Z,2.85
2024-04-12T19:12:51.509Z,2.73
2024-04-12T19:54:33.618Z,3.13
2024-04-12T20:18:31.502Z,3.30
2024-04-12T20:52:27.532Z,3.55
2024-04-12T21:42:33.101Z,4.00
2024-04-12T22:24:31.739Z,4.27
2024-04-12T22:35:44.696Z,3.53
2024-04-12T22:42:40.803Z,3.22
2024-04-12T23:53:56.748Z,2.08
